Veter Od: 28-11-2020 19:00 Do: 29-11-2020 22:59 Opozorilo za: Veter Stopnja: Rumena info button

METAR v bližini

 

LIPQ - Ronchi Legionari, Italy
Oddaljenost od postaje: JZ 35km
Podatki zajeti: 28/11/2020 18:20
Oblačno
Oblačno
 Veter iz smeri S
Veter: S 9 km/h
Temperatura: 9°C
Občutek mraza zaradi vetra: 7°C
Temp. rosišča: 6°C
Vlažnost: 82%
Tlak: 1017 hPa
Oblačnost: Oblačno
Vidljivost: 10 km
Podrobnosti o oblakih: Oblačno 1615 m
2020/11/28 17:20 LIPQ 281720Z AUTO 01005KT 9999 OVC053/// 09/06 Q1017
LIVT - Trieste, Italy
Oddaljenost od postaje: J 49km
Podatki zajeti: 28/11/2020 17:55
Oblačno
Oblačno
 Veter iz smeri spremenljiv
Veter: spremenljiv 0 km/h
Temperatura: 12°C
Temp. rosišča: 7°C
Vlažnost: 72%
Tlak: 1017 hPa
Oblačnost: Oblačno
Vidljivost: 10 km
Podrobnosti o oblakih: Oblačno 914 m
2020/11/28 16:55 LIVT 281655Z /////KT 9999 OVC030 12/07 Q1017 RMK OVC QUK / QUL / VIS MAR 20 KM VIS MIN 9999
 
LIVO - Tarvisio, Italy
Oddaljenost od postaje: SSZ 49km
Podatki zajeti: 28/11/2020 17:55
Jasno
Jasno
 Veter iz smeri calm
Veter: Tišina
Temperatura: 0°C
Temp. rosišča: -2°C
Vlažnost: 87%
Tlak: 1017 hPa
Stanje: Jasno
Vidljivost: večja od 10 km
2020/11/28 16:55 LIVO 281655Z 00000KT CAVOK 00/M02 Q1017 RMK SKC VIS MIN 9999
LIPI - Rivolto (it-Afb), Italy
Oddaljenost od postaje: ZJZ 57km
Podatki zajeti: 27/11/2020 11:55
Ni posodobljen
Jasno
Jasno
 Veter iz smeri spremenljiv
Veter: spremenljiv 2 km/h
Temperatura: 10°C
Temp. rosišča: 5°C
Vlažnost: 71%
Tlak: 1022 hPa
Stanje: Jasno
Vidljivost: večja od 10 km
2020/11/27 10:55 LIPI 271055Z VRB01KT CAVOK 10/05 Q1022 RMK FEW FEW200 VIS MIN 9999 WIND THR06 13002KT WIND THR24 13003KT BLU
 
LJLJ - Ljubljana/Brnik, Slovenia
Oddaljenost od postaje: VSV 59km
Podatki zajeti: 28/11/2020 18:30
Meglice, Oblačno
Meglice, Oblačno
 Veter iz smeri spremenljiv
Veter: spremenljiv 2 km/h
Temperatura: 1°C
Temp. rosišča: 1°C
Vlažnost: 100%
Tlak: 1020 hPa
Stanje: Meglice
Oblačnost: Oblačno
Vidljivost: 5 km
Podrobnosti o oblakih: Oblačno 213 m
2020/11/28 17:30 LJLJ 281730Z VRB01KT 5000 BR OVC007 01/01 Q1020 NOSIG
LJPZ - Portoroz, Slovenia
Oddaljenost od postaje: J 68km
Podatki zajeti: 28/11/2020 18:30
Pretežno oblačno
Pretežno oblačno
 Veter iz smeri spremenljiv
Veter: spremenljiv 2 km/h
Temperatura: 11°C
Temp. rosišča: 8°C
Vlažnost: 82%
Tlak: 1017 hPa
Oblačnost: Pretežno oblačno
Vidljivost: 10 km
Podrobnosti o oblakih: Delno oblačno 1219 m
Pretežno oblačno 1829 m
2020/11/28 17:30 LJPZ 281730Z VRB01KT 9999 SCT040 BKN060 11/08 Q1017
 
LOWK - Klagenfurt(Civ/M, Austria
Oddaljenost od postaje: SV 78km
Podatki zajeti: 28/11/2020 18:20
Megla ki zmrzuje, Oblačno
Megla ki zmrzuje, Oblačno
 Veter iz smeri spremenljiv
Veter: spremenljiv 2 km/h
Temperatura: -3°C
Temp. rosišča: -4°C
Vlažnost: 93%
Tlak: 1020 hPa
Stanje: Megla ki zmrzuje
Oblačnost: Oblačno
Vidljivost: 0 km
Podrobnosti o oblakih: Oblačno 61 m
2020/11/28 17:20 LOWK 281720Z VRB01KT 0450 R10/0500N R28/0700N FZFG VV002 M03/M04 Q1020 R10L/19//95 NOSIG
LIYW - Aviano (usaf), Italy
Oddaljenost od postaje: Z 86km
Podatki zajeti: 20/10/2015 15:58
Ni posodobljen
Jasno
Jasno
 Veter iz smeri JJZ
Veter: JJZ 6 km/h
Temperatura: 17°C
Temp. rosišča: 3°C
Vlažnost: 39%
Tlak: 1016.3 hPa
Oblačnost: Jasno
Vidljivost: 10 km
2015/10/20 13:58 LIYW 201358Z AUTO 21003KT 9999 CLR 17/03 A3001 RMK AO2 SLP167 T01660029
 
LIPA - Aviano (it/Us-Af, Italy
Oddaljenost od postaje: Z 89km
Podatki zajeti: 27/11/2020 19:55
Ni posodobljen
Delno oblačno
Delno oblačno
 Veter iz smeri SSV
Veter: SSV 7 km/h
Temperatura: 2°C
Občutek mraza zaradi vetra: 0°C
Temp. rosišča: 1°C
Vlažnost: 93%
Tlak: 1021 hPa
Oblačnost: Delno oblačno
Vidljivost: 8 km
2020/11/27 18:55 LIPA 271855Z 03004KT 8000 NSC 02/01 Q1021 RMK SKC VIS MIN 8000 WIND THR05 /////KT WIND THR23 /////KT A3017 BLU
LDRI - Rijeka/Omisalj, Croatia
Oddaljenost od postaje: JV 115km
Podatki zajeti: 28/11/2020 18:30
Pretežno oblačno
Pretežno oblačno
 Veter iz smeri calm
Veter: Tišina
Temperatura: 12°C
Temp. rosišča: 8°C
Vlažnost: 77%
Tlak: 1017 hPa
Oblačnost: Pretežno oblačno
Vidljivost: 10 km
Podrobnosti o oblakih: Pretežno oblačno 1067 m
2020/11/28 17:30 LDRI 281730Z 00000KT 9999 BKN035 12/08 Q1017
 
LIPZ - Venezia/Tessera, Italy
Oddaljenost od postaje: ZJZ 127km
Podatki zajeti: 28/11/2020 18:20
Pretežno oblačno
Pretežno oblačno
 Veter iz smeri SSZ
Veter: SSZ 9 km/h
Temperatura: 8°C
Občutek mraza zaradi vetra: 6°C
Temp. rosišča: 4°C
Vlažnost: 76%
Tlak: 1017 hPa
Oblačnost: Pretežno oblačno
Vidljivost: 7 km
Podrobnosti o oblakih: Pretežno oblačno 1067 m
2020/11/28 17:20 LIPZ 281720Z 33005KT 7000 BKN035 08/04 Q1017 NOSIG
LDPL - Pula, Croatia
Oddaljenost od postaje: J 133km
Podatki zajeti: 28/11/2020 18:30
Rahlo dežuje, Oblačno
Rahlo dežuje, Oblačno
 Veter iz smeri V
Veter: V 13 km/h
Temperatura: 11°C
Temp. rosišča: 10°C
Vlažnost: 94%
Tlak: 1016 hPa
Stanje: Rahlo dežuje
Oblačnost: Oblačno
Vidljivost: 6 km
Podrobnosti o oblakih: Delno oblačno 122 m
Oblačno 457 m
2020/11/28 17:30 LDPL 281730Z 08007KT 6000 -RA SCT004 OVC015 11/10 Q1016
 
LIPS - Istrana (it-Afb), Italy
Oddaljenost od postaje: ZJZ 136km
Podatki zajeti: 28/11/2020 17:55
Meglice, Pretežno oblačno
Meglice, Pretežno oblačno
 Veter iz smeri SZ
Veter: SZ 4 km/h
Temperatura: 9°C
Temp. rosišča: 6°C
Vlažnost: 82%
Tlak: 1017 hPa
Stanje: Meglice
Oblačnost: Pretežno oblačno
Vidljivost: 4 km
Podrobnosti o oblakih: Pretežno oblačno 1219 m
2020/11/28 16:55 LIPS 281655Z 32002KT 4000 BR BKN040 09/06 Q1017 RMK BKN VIS MIN 4000 WIND THR26 26002KT WIND THR08 30002KT GRN
LIVD - Dobbiaco, Italy
Oddaljenost od postaje: ZSZ 137km
Podatki zajeti: 28/11/2020 17:55
Jasno
Jasno
 Veter iz smeri spremenljiv
Veter: spremenljiv 0 km/h
Temperatura: -1°C
Temp. rosišča: -5°C
Vlažnost: 75%
Tlak: 1016 hPa
Stanje: Jasno
Vidljivost: večja od 10 km
2020/11/28 16:55 LIVD 281655Z /////KT CAVOK M01/M05 Q1016 RMK SKC VIS MIN 9999 BLU
 
LJCE - Cerklje, Slovenia
Oddaljenost od postaje: V 139km
Podatki zajeti: 28/11/2020 18:30
Oblačno
Oblačno
 Veter iz smeri SSV
Veter: SSV 6 km/h
Temperatura: 1°C
Temp. rosišča: 0°C
Vlažnost: 93%
Tlak: 1022 hPa
Oblačnost: Oblačno
Vidljivost: 10 km
Podrobnosti o oblakih: Oblačno 213 m
2020/11/28 17:30 LJCE 281730Z 03003KT 350V060 9999 OVC007 01/M00 Q1022 RMK GRN
LOXZ - Zeltweg (mil), Austria
Oddaljenost od postaje: SSV 147km
Podatki zajeti: 28/11/2020 17:50
Rahlo oblačno
Rahlo oblačno
 Veter iz smeri ZSZ
Veter: ZSZ 7 km/h
Temperatura: -3°C
Občutek mraza zaradi vetra: -6°C
Temp. rosišča: -4°C
Vlažnost: 93%
Tlak: 1018 hPa
Oblačnost: Rahlo oblačno
Podrobnosti o oblakih: Rahlo oblačno 7620 m
2020/11/28 16:50 LOXZ 281650Z 30004KT 15KM FEW250CI M03/M04 Q1018 NOSIG
sucontract_SNC